Time;durP1;ratioP1;P1;durP2;ratioP2;P2;SDS_P1;SDS_P2;PMS_P1;PMS_P2;Temp;Humidity;BMP_temperature;BMP_pressure;BME280_temperature;BME280_humidity;BME280_pressure;Samples;Min_cycle;Max_cycle;Signal;HPM_P1;HPM_P2
2022/07/18 03:25:01;;;;;;;3.70;3.10;;;12.60;99.90;;;;;;5044754;28;20584;-64
2022/07/18 03:27:28;;;;;;;3.60;2.97;;;13.20;99.90;;;;;;5044731;28;20300;-63
2022/07/18 03:29:54;;;;;;;3.73;3.10;;;13.20;99.90;;;;;;5045252;28;20632;-65
2022/07/18 03:32:21;;;;;;;5.97;3.47;;;13.30;99.90;;;;;;5044463;28;20635;-66
2022/07/18 03:34:48;;;;;;;6.50;3.60;;;13.40;99.90;;;;;;5034803;28;20210;-66
2022/07/18 03:37:15;;;;;;;4.87;3.27;;;13.50;99.90;;;;;;5031756;28;20305;-65
2022/07/18 03:39:42;;;;;;;5.03;3.50;;;13.50;99.90;;;;;;5024860;28;20833;-66
2022/07/18 03:42:10;;;;;;;3.60;3.10;;;13.50;99.90;;;;;;5006479;28;20724;-66
2022/07/18 03:44:37;;;;;;;5.50;3.20;;;13.60;99.90;;;;;;5015323;28;20297;-66
2022/07/18 03:47:04;;;;;;;3.30;3.00;;;13.70;99.90;;;;;;5024866;28;20659;-66
2022/07/18 03:49:31;;;;;;;4.43;3.40;;;13.70;99.90;;;;;;5024370;28;20750;-66
2022/07/18 03:51:58;;;;;;;4.23;3.50;;;13.70;99.90;;;;;;5024418;28;20750;-65
2022/07/18 03:54:25;;;;;;;3.53;3.23;;;13.70;99.90;;;;;;5023297;28;20240;-66
2022/07/18 03:56:52;;;;;;;5.73;3.93;;;13.70;99.90;;;;;;5024655;28;20210;-64
2022/07/18 03:59:20;;;;;;;6.20;3.67;;;13.80;99.90;;;;;;5024784;28;20271;-66
2022/07/18 04:01:47;;;;;;;4.43;3.47;;;13.80;99.90;;;;;;5024204;28;20668;-67
2022/07/18 04:04:14;;;;;;;6.13;3.77;;;13.90;99.90;;;;;;5022671;28;20202;-66
2022/07/18 04:06:41;;;;;;;7.17;3.43;;;13.90;99.90;;;;;;5024629;28;20297;-65
2022/07/18 04:09:08;;;;;;;5.87;3.50;;;13.90;99.90;;;;;;5024980;28;20659;-66
2022/07/18 04:11:35;;;;;;;3.73;3.00;;;13.90;99.90;;;;;;5024148;28;20667;-66
2022/07/18 04:14:02;;;;;;;5.60;3.40;;;14.00;99.90;;;;;;5023886;28;20214;-67
2022/07/18 04:16:30;;;;;;;5.27;3.03;;;14.10;99.90;;;;;;5024911;28;20625;-68
2022/07/18 04:18:57;;;;;;;4.10;3.17;;;14.20;99.90;;;;;;5024261;28;20206;-67
2022/07/18 04:21:24;;;;;;;5.33;3.20;;;14.30;99.90;;;;;;5023873;28;20214;-66
2022/07/18 04:23:51;;;;;;;5.33;3.50;;;14.30;99.90;;;;;;5021769;28;20711;-67
2022/07/18 04:26:18;;;;;;;4.33;3.03;;;14.40;99.90;;;;;;5011316;28;20648;-67
2022/07/18 04:28:45;;;;;;;4.40;2.90;;;14.40;99.90;;;;;;5010980;28;20632;-67
2022/07/18 04:31:12;;;;;;;5.20;3.40;;;14.40;99.90;;;;;;5011508;28;20211;-66
2022/07/18 04:33:40;;;;;;;7.57;4.10;;;14.50;99.90;;;;;;5010456;28;20255;-67
2022/07/18 04:36:08;;;;;;;3.80;3.13;;;14.60;99.90;;;;;;5010199;28;20206;-67
2022/07/18 04:38:37;;;;;;;5.03;3.23;;;14.70;99.90;;;;;;5010477;28;20207;-66
2022/07/18 04:41:04;;;;;;;3.30;3.00;;;14.80;99.90;;;;;;5011340;28;20301;-68
2022/07/18 04:43:31;;;;;;;4.27;2.97;;;14.90;99.90;;;;;;5010073;28;20289;-67
2022/07/18 04:45:58;;;;;;;4.47;3.10;;;15.00;99.90;;;;;;5010953;28;20242;-66
2022/07/18 04:48:25;;;;;;;4.20;2.80;;;15.00;99.90;;;;;;5010524;28;20682;-66
2022/07/18 04:50:53;;;;;;;2.90;2.60;;;15.00;99.90;;;;;;5010235;28;20261;-66
2022/07/18 04:53:20;;;;;;;4.67;3.37;;;15.10;99.90;;;;;;4991168;28;20318;-66
2022/07/18 04:55:47;;;;;;;2.47;2.27;;;15.10;99.90;;;;;;5008593;28;20291;-67
2022/07/18 04:58:14;;;;;;;4.70;2.90;;;15.10;99.90;;;;;;5010497;28;20288;-67
2022/07/18 05:00:41;;;;;;;5.50;3.40;;;15.30;99.90;;;;;;5010319;28;20231;-67
2022/07/18 05:03:08;;;;;;;5.00;2.90;;;15.30;99.90;;;;;;5009898;28;20656;-67
2022/07/18 05:05:35;;;;;;;2.77;2.50;;;15.30;99.90;;;;;;5010241;28;20211;-67
2022/07/18 05:08:03;;;;;;;5.73;3.17;;;15.30;99.90;;;;;;5010153;28;20195;-67
2022/07/18 05:10:30;;;;;;;3.67;2.50;;;15.40;99.90;;;;;;5009005;28;20203;-67
2022/07/18 05:12:57;;;;;;;3.10;2.73;;;15.50;99.90;;;;;;5008140;28;20203;-67
2022/07/18 05:15:25;;;;;;;2.43;2.20;;;15.50;99.90;;;;;;5009289;28;20720;-66
2022/07/18 05:17:52;;;;;;;5.67;2.60;;;15.60;99.90;;;;;;5006706;28;20207;-66
2022/07/18 05:20:21;;;;;;;4.87;2.83;;;15.60;99.90;;;;;;5009511;28;20218;-67
2022/07/18 05:22:48;;;;;;;3.17;2.43;;;15.70;99.90;;;;;;5001771;28;20214;-69
2022/07/18 05:25:17;;;;;;;4.80;2.97;;;15.90;99.90;;;;;;5009672;28;20571;-66
2022/07/18 05:27:44;;;;;;;3.23;2.77;;;15.90;99.90;;;;;;5009582;28;20200;-66
2022/07/18 05:30:13;;;;;;;3.73;2.47;;;16.00;99.90;;;;;;5009525;28;20286;-67
2022/07/18 05:32:41;;;;;;;4.73;2.80;;;16.10;99.90;;;;;;5009364;28;20237;-66
2022/07/18 05:35:09;;;;;;;2.93;2.53;;;16.10;99.90;;;;;;5009447;28;20231;-68
2022/07/18 05:37:37;;;;;;;3.47;2.47;;;16.20;99.90;;;;;;5007761;28;20286;-69
2022/07/18 05:40:05;;;;;;;6.03;2.70;;;16.20;99.90;;;;;;5009554;28;20219;-68
2022/07/18 05:42:33;;;;;;;4.97;2.70;;;16.30;99.90;;;;;;5006912;28;20231;-68
2022/07/18 05:45:00;;;;;;;3.87;2.50;;;16.30;99.90;;;;;;5008764;28;20232;-67
2022/07/18 05:47:27;;;;;;;7.50;2.80;;;16.40;99.90;;;;;;5008944;28;20203;-69
2022/07/18 05:49:54;;;;;;;4.60;2.70;;;16.40;99.90;;;;;;5002855;28;20212;-67
2022/07/18 05:52:21;;;;;;;3.90;2.83;;;16.30;99.90;;;;;;5006425;28;20226;-67
2022/07/18 05:54:48;;;;;;;4.23;3.00;;;16.50;99.90;;;;;;5009058;28;20217;-67
2022/07/18 05:57:15;;;;;;;7.57;2.90;;;16.50;99.90;;;;;;4995456;28;20208;-67
2022/07/18 05:59:43;;;;;;;3.87;2.70;;;16.60;99.90;;;;;;5008231;28;20208;-67
2022/07/18 06:02:12;;;;;;;4.60;2.70;;;16.70;99.90;;;;;;5006862;28;20293;-68
2022/07/18 06:04:39;;;;;;;5.50;3.10;;;16.80;99.90;;;;;;5008203;28;20598;-66
2022/07/18 06:07:06;;;;;;;5.13;2.80;;;16.90;99.90;;;;;;5009766;28;20221;-67
2022/07/18 06:09:33;;;;;;;4.03;2.67;;;17.00;99.90;;;;;;5009370;28;20213;-67
2022/07/18 06:12:01;;;;;;;3.60;2.60;;;17.10;99.90;;;;;;5007738;28;20649;-66
2022/07/18 06:14:29;;;;;;;3.63;2.57;;;17.10;99.90;;;;;;5009531;28;20310;-67
2022/07/18 06:16:57;;;;;;;2.93;2.47;;;17.30;99.90;;;;;;5009628;28;20294;-67
2022/07/18 06:19:24;;;;;;;3.73;2.60;;;17.40;99.90;;;;;;5008523;28;20237;-66
2022/07/18 06:21:52;;;;;;;4.13;2.63;;;17.40;99.90;;;;;;5007448;28;20210;-67
2022/07/18 06:24:18;;;;;;;2.90;2.57;;;17.50;99.90;;;;;;5008426;28;20237;-67
2022/07/18 06:26:45;;;;;;;3.20;2.40;;;17.60;99.90;;;;;;5009616;28;20241;-66
2022/07/18 06:29:12;;;;;;;3.83;2.17;;;17.60;99.90;;;;;;5009274;28;20215;-66
2022/07/18 06:31:39;;;;;;;4.27;2.83;;;17.70;99.90;;;;;;5007827;28;20211;-68
2022/07/18 06:34:07;;;;;;;3.67;2.47;;;17.70;99.90;;;;;;5008683;28;20229;-67
2022/07/18 06:36:34;;;;;;;3.77;2.80;;;17.70;99.90;;;;;;4997618;28;20777;-69
2022/07/18 06:39:01;;;;;;;3.30;2.43;;;17.80;99.90;;;;;;5007579;28;20213;-67
2022/07/18 06:41:28;;;;;;;3.53;2.90;;;17.90;99.90;;;;;;5006043;28;20211;-67
2022/07/18 06:43:55;;;;;;;3.43;2.40;;;17.90;99.90;;;;;;5005515;28;20195;-67
2022/07/18 06:46:22;;;;;;;8.67;3.10;;;18.00;99.90;;;;;;5008793;28;20294;-66
2022/07/18 06:48:49;;;;;;;5.50;3.03;;;18.20;99.90;;;;;;5008828;28;20296;-66
2022/07/18 06:51:17;;;;;;;3.27;2.70;;;18.20;99.90;;;;;;5007772;28;20210;-66
2022/07/18 06:53:44;;;;;;;3.90;2.87;;;18.30;99.90;;;;;;5009190;28;20661;-67
2022/07/18 06:56:11;;;;;;;3.93;2.20;;;18.30;99.90;;;;;;5009395;28;20591;-67
2022/07/18 06:58:38;;;;;;;5.07;2.70;;;18.50;99.90;;;;;;5009229;28;20210;-65
2022/07/18 07:01:06;;;;;;;2.40;2.03;;;18.50;99.90;;;;;;5007661;28;20277;-68
2022/07/18 07:03:33;;;;;;;3.17;2.00;;;18.50;99.90;;;;;;5008585;28;20247;-66
2022/07/18 07:06:00;;;;;;;2.93;1.87;;;18.60;99.90;;;;;;5008646;28;20723;-69
2022/07/18 07:08:28;;;;;;;2.70;1.70;;;18.60;99.90;;;;;;5006017;28;20215;-68
2022/07/18 07:10:55;;;;;;;3.40;2.40;;;18.60;99.90;;;;;;5008173;28;20209;-65
2022/07/18 07:13:22;;;;;;;2.83;1.57;;;18.70;99.90;;;;;;5007654;28;20298;-65
2022/07/18 07:15:49;;;;;;;3.93;2.00;;;18.80;99.90;;;;;;5006693;28;20233;-65
2022/07/18 07:18:16;;;;;;;3.97;1.60;;;18.80;99.90;;;;;;5014634;28;20668;-66
2022/07/18 07:20:43;;;;;;;2.63;1.67;;;18.90;99.90;;;;;;5012218;28;20266;-66
2022/07/18 07:23:10;;;;;;;2.07;1.83;;;19.00;99.90;;;;;;5006313;28;20731;-67
2022/07/18 07:25:38;;;;;;;2.87;1.60;;;19.10;99.90;;;;;;5002981;28;20196;-65
2022/07/18 07:28:06;;;;;;;4.43;2.30;;;19.20;99.90;;;;;;5011801;28;20223;-66
2022/07/18 07:30:34;;;;;;;6.23;2.20;;;19.20;99.90;;;;;;5004878;28;20613;-67
2022/07/18 07:33:02;;;;;;;4.43;1.80;;;19.30;99.90;;;;;;4997473;28;20228;-68
2022/07/18 07:35:30;;;;;;;2.47;1.60;;;19.30;99.90;;;;;;5015585;28;20314;-68
2022/07/18 07:37:59;;;;;;;3.57;1.77;;;19.40;99.90;;;;;;5010974;28;20287;-68
2022/07/18 07:40:28;;;;;;;3.10;1.70;;;19.40;99.90;;;;;;5013783;28;20213;-67
2022/07/18 07:43:08;;;;;;;2.50;1.80;;;19.40;99.90;;;;;;5004815;28;20229;-66
2022/07/18 07:45:35;;;;;;;1.67;1.47;;;19.50;99.90;;;;;;5007243;28;20210;-65
2022/07/18 07:48:02;;;;;;;2.57;1.60;;;19.60;99.90;;;;;;5010229;28;20676;-65
2022/07/18 07:50:30;;;;;;;4.53;2.23;;;19.60;99.90;;;;;;5005176;28;20848;-66
2022/07/18 07:52:57;;;;;;;3.03;2.10;;;19.60;99.90;;;;;;4999168;28;20203;-65
2022/07/18 07:55:24;;;;;;;1.67;1.57;;;19.70;99.90;;;;;;5007645;28;20692;-64
2022/07/18 07:57:52;;;;;;;1.40;1.30;;;19.80;99.90;;;;;;5007241;28;20207;-66
2022/07/18 08:00:20;;;;;;;1.57;1.33;;;19.80;99.90;;;;;;5010784;28;20208;-65
2022/07/18 08:02:52;;;;;;;1.43;1.33;;;19.80;99.90;;;;;;5009171;28;20290;-66
2022/07/18 08:05:19;;;;;;;1.97;1.20;;;19.80;99.90;;;;;;4992077;28;20205;-65
2022/07/18 08:07:46;;;;;;;2.63;1.47;;;19.80;99.90;;;;;;5007043;28;20684;-66
2022/07/18 08:10:13;;;;;;;3.87;1.40;;;19.80;99.90;;;;;;5011589;28;20210;-65
2022/07/18 08:12:40;;;;;;;3.00;1.43;;;19.90;99.90;;;;;;5016418;28;20203;-64
2022/07/18 08:15:08;;;;;;;3.37;1.60;;;19.90;99.90;;;;;;5021838;28;20223;-66
2022/07/18 08:17:36;;;;;;;1.73;1.50;;;20.00;99.90;;;;;;5027637;28;20292;-66
2022/07/18 08:20:04;;;;;;;2.40;1.30;;;20.00;99.90;;;;;;5023047;28;20345;-64
2022/07/18 08:22:31;;;;;;;3.30;1.60;;;20.00;99.90;;;;;;5010854;28;20291;-68
2022/07/18 08:24:58;;;;;;;2.57;1.40;;;20.10;99.90;;;;;;5010759;28;20726;-66
2022/07/18 08:27:25;;;;;;;1.80;1.30;;;20.20;99.90;;;;;;5010477;28;20645;-68
2022/07/18 08:29:52;;;;;;;1.33;1.23;;;20.20;99.90;;;;;;4990573;28;20302;-67
2022/07/18 08:32:19;;;;;;;1.43;1.30;;;20.20;99.90;;;;;;4997591;28;20292;-68
2022/07/18 08:34:47;;;;;;;3.80;1.33;;;20.20;99.90;;;;;;5030019;28;20663;-66
2022/07/18 08:37:14;;;;;;;1.50;1.30;;;20.10;99.90;;;;;;5019252;28;20721;-63
2022/07/18 08:39:41;;;;;;;2.57;1.30;;;20.10;99.90;;;;;;5009786;28;20291;-64
2022/07/18 08:42:09;;;;;;;1.90;1.37;;;20.10;99.90;;;;;;5006890;28;20223;-64
2022/07/18 08:44:40;;;;;;;1.37;1.10;;;20.10;99.90;;;;;;5009185;28;20195;-64
2022/07/18 08:47:08;;;;;;;1.33;1.20;;;20.00;99.90;;;;;;5067642;28;20245;-63
2022/07/18 08:49:37;;;;;;;1.60;1.20;;;20.10;99.90;;;;;;5059369;28;20227;-64
2022/07/18 08:52:06;;;;;;;1.67;1.00;;;20.30;99.90;;;;;;5001490;28;20658;-64
2022/07/18 08:54:33;;;;;;;1.93;1.20;;;20.40;99.90;;;;;;5005734;28;20257;-64
2022/07/18 08:57:00;;;;;;;1.63;1.20;;;20.40;99.90;;;;;;5009175;28;20669;-65
2022/07/18 08:59:27;;;;;;;1.60;0.80;;;20.50;99.90;;;;;;5014103;28;20660;-65
2022/07/18 09:01:54;;;;;;;1.00;1.00;;;20.50;99.90;;;;;;5029497;28;20204;-65
2022/07/18 09:04:36;;;;;;;1.20;1.10;;;20.60;99.90;;;;;;5029870;28;20213;-64
2022/07/18 09:07:04;;;;;;;4.00;1.10;;;20.70;99.90;;;;;;5007881;28;20205;-65
2022/07/18 09:09:32;;;;;;;1.30;1.00;;;20.70;99.90;;;;;;5089715;28;20757;-64
2022/07/18 09:12:02;;;;;;;1.37;1.10;;;20.80;99.90;;;;;;5011381;28;20222;-69
2022/07/18 09:14:31;;;;;;;1.10;1.00;;;20.80;99.90;;;;;;5008572;28;20937;-66
2022/07/18 09:17:05;;;;;;;2.07;1.13;;;20.90;99.90;;;;;;5028567;28;20621;-64
2022/07/18 09:19:32;;;;;;;2.33;1.20;;;20.80;99.90;;;;;;5010312;28;20206;-65
2022/07/18 09:22:13;;;;;;;1.20;1.10;;;20.90;99.90;;;;;;5026992;28;20275;-64
2022/07/18 09:25:00;;;;;;;2.50;0.90;;;21.00;99.90;;;;;;5024649;28;20319;-66
2022/07/18 09:27:34;;;;;;;1.10;1.00;;;21.10;99.90;;;;;;5100734;28;20194;-65
2022/07/18 09:30:20;;;;;;;1.67;1.07;;;21.10;99.90;;;;;;5016454;28;20240;-65
2022/07/18 09:32:49;;;;;;;2.83;1.07;;;21.20;99.90;;;;;;5032236;28;20659;-65
2022/07/18 09:35:18;;;;;;;1.20;1.10;;;21.20;99.90;;;;;;5008928;28;20248;-68
2022/07/18 09:38:01;;;;;;;2.73;1.10;;;21.20;99.90;;;;;;5010119;28;20207;-66
2022/07/18 09:40:31;;;;;;;1.17;1.00;;;21.30;99.90;;;;;;5007978;28;21157;-64
2022/07/18 09:42:59;;;;;;;1.83;0.90;;;21.30;99.90;;;;;;5007548;28;20209;-64
2022/07/18 09:45:29;;;;;;;1.50;0.90;;;21.40;99.90;;;;;;5008782;28;20289;-63
2022/07/18 09:47:58;;;;;;;5.73;1.03;;;21.50;99.90;;;;;;5007612;28;20235;-66
2022/07/18 09:50:31;;;;;;;0.80;0.80;;;21.50;99.90;;;;;;5009170;28;20203;-63
2022/07/18 09:53:10;;;;;;;1.13;1.00;;;21.40;99.90;;;;;;5007903;28;20206;-64
2022/07/18 09:55:44;;;;;;;0.90;0.90;;;21.40;99.90;;;;;;5006650;28;20259;-67
2022/07/18 09:58:11;;;;;;;1.30;1.00;;;21.60;99.90;;;;;;5006324;28;20279;-63
2022/07/18 10:00:41;;;;;;;1.77;1.10;;;21.70;99.90;;;;;;5009275;28;20252;-64
2022/07/18 10:03:09;;;;;;;0.90;0.90;;;21.80;99.90;;;;;;5008389;28;20224;-66
2022/07/18 10:05:37;;;;;;;1.43;0.93;;;22.00;99.90;;;;;;5003032;28;20199;-69
2022/07/18 10:08:07;;;;;;;1.57;0.90;;;22.10;99.90;;;;;;5008400;28;20204;-68
2022/07/18 10:10:34;;;;;;;1.30;0.93;;;22.10;99.90;;;;;;5006194;28;20547;-69
2022/07/18 10:13:04;;;;;;;0.90;0.90;;;22.10;99.90;;;;;;5008631;28;20210;-65
2022/07/18 10:15:32;;;;;;;1.90;0.90;;;22.10;99.90;;;;;;5009162;28;20238;-69
2022/07/18 10:18:01;;;;;;;1.97;0.90;;;22.10;99.90;;;;;;5009288;28;20720;-66
2022/07/18 10:20:34;;;;;;;1.07;0.97;;;22.10;99.90;;;;;;5009064;28;20210;-65
2022/07/18 10:23:09;;;;;;;0.90;0.90;;;22.00;99.90;;;;;;5007345;28;20301;-65
2022/07/18 10:25:37;;;;;;;1.30;1.10;;;21.90;99.90;;;;;;5002058;28;20200;-64
2022/07/18 10:28:11;;;;;;;1.40;1.30;;;21.90;99.90;;;;;;5005673;28;20648;-66
2022/07/18 10:30:40;;;;;;;4.00;1.20;;;22.00;99.90;;;;;;5008621;28;20202;-64
2022/07/18 10:33:39;;;;;;;1.50;1.13;;;22.10;99.90;;;;;;5007788;28;20254;-65
2022/07/18 10:36:08;;;;;;;1.00;1.00;;;22.20;99.90;;;;;;5005959;28;20212;-65
2022/07/18 10:38:35;;;;;;;1.70;0.83;;;22.30;99.90;;;;;;5008065;28;20206;-65
2022/07/18 10:41:04;;;;;;;1.00;0.90;;;22.20;99.90;;;;;;5007776;28;20205;-64
2022/07/18 10:43:50;;;;;;;1.87;0.90;;;22.20;99.90;;;;;;5008209;28;20731;-65
2022/07/18 10:46:17;;;;;;;1.20;1.10;;;22.20;99.90;;;;;;5007298;28;20613;-65
2022/07/18 10:48:54;;;;;;;1.30;1.20;;;22.30;99.90;;;;;;5005642;28;20293;-66
2022/07/18 10:51:30;;;;;;;1.00;1.00;;;22.30;99.90;;;;;;5008030;28;20237;-65
2022/07/18 10:53:58;;;;;;;0.90;0.90;;;22.30;99.90;;;;;;5007839;28;20201;-66
2022/07/18 10:56:58;;;;;;;2.83;1.00;;;22.30;99.90;;;;;;5005352;28;20594;-66
2022/07/18 10:59:28;;;;;;;0.80;0.80;;;22.20;99.90;;;;;;5005391;28;20267;-64
2022/07/18 11:01:57;;;;;;;0.83;0.83;;;22.10;99.90;;;;;;5007368;28;20415;-64
2022/07/18 11:04:26;;;;;;;2.97;1.07;;;22.10;99.90;;;;;;5005245;28;20212;-65
2022/07/18 11:06:56;;;;;;;1.20;1.10;;;22.10;99.90;;;;;;5007710;28;20305;-65
2022/07/18 11:09:32;;;;;;;1.77;1.07;;;22.00;99.90;;;;;;5004978;28;20628;-66
2022/07/18 11:12:22;;;;;;;1.00;0.90;;;22.10;99.90;;;;;;5007555;28;20801;-63
2022/07/18 11:15:11;;;;;;;1.70;0.93;;;22.20;99.90;;;;;;5005583;28;20198;-64
2022/07/18 11:17:58;;;;;;;1.00;0.90;;;22.20;99.90;;;;;;5006945;28;20575;-65
2022/07/18 11:20:53;;;;;;;1.00;1.00;;;22.30;99.90;;;;;;5005206;28;20580;-65
2022/07/18 11:23:22;;;;;;;1.37;0.90;;;22.40;99.90;;;;;;5004141;28;20246;-64
2022/07/18 11:25:50;;;;;;;1.17;1.07;;;22.40;99.90;;;;;;5008019;28;20205;-66
2022/07/18 11:28:18;;;;;;;1.63;1.00;;;22.40;99.90;;;;;;5008387;28;20203;-64
2022/07/18 11:30:47;;;;;;;5.13;1.10;;;22.20;99.90;;;;;;5008024;28;20211;-67
2022/07/18 11:33:25;;;;;;;2.00;1.00;;;22.20;99.90;;;;;;5008713;28;20669;-65
2022/07/18 11:35:52;;;;;;;1.80;0.80;;;22.10;99.90;;;;;;5011081;28;20648;-69
2022/07/18 11:38:19;;;;;;;2.30;0.93;;;22.10;99.90;;;;;;5011999;28;20256;-68
2022/07/18 11:40:49;;;;;;;1.83;1.10;;;22.00;99.90;;;;;;5011895;28;20205;-68
2022/07/18 11:43:21;;;;;;;1.00;1.00;;;22.10;99.90;;;;;;5009145;28;20207;-69
2022/07/18 11:45:59;;;;;;;1.87;1.10;;;22.10;99.90;;;;;;5010109;28;20569;-66
2022/07/18 12:06:27;;;;;;;1.00;1.00;;;22.10;99.90;;;;;;5133830;27;21077;-66
2022/07/18 12:08:56;;;;;;;3.07;0.90;;;22.90;99.90;;;;;;5150575;27;20197;-64
2022/07/18 12:11:28;;;;;;;1.00;0.90;;;23.00;99.90;;;;;;5149391;27;20254;-70
2022/07/18 12:13:57;;;;;;;1.50;0.83;;;23.20;99.90;;;;;;5126834;27;20292;-65
2022/07/18 12:16:35;;;;;;;1.17;0.83;;;23.20;99.90;;;;;;5129902;27;20293;-65
2022/07/18 12:19:07;;;;;;;1.03;0.80;;;23.00;99.90;;;;;;5132545;27;20204;-64
2022/07/18 12:21:48;;;;;;;1.13;0.70;;;23.00;99.90;;;;;;5126871;27;20246;-64
2022/07/18 12:24:25;;;;;;;1.23;0.73;;;23.10;99.90;;;;;;5122077;28;20593;-68
2022/07/18 12:27:09;;;;;;;1.13;0.90;;;23.10;99.90;;;;;;5129127;27;20185;-63
2022/07/18 12:29:54;;;;;;;0.87;0.80;;;23.20;99.90;;;;;;5110557;27;20202;-64
2022/07/18 12:32:24;;;;;;;0.80;0.80;;;23.30;99.90;;;;;;5127173;27;20198;-65
2022/07/18 12:34:56;;;;;;;1.10;0.90;;;23.40;99.90;;;;;;5117527;28;20216;-65
2022/07/18 12:37:29;;;;;;;6.10;1.07;;;23.40;99.90;;;;;;5117332;28;20206;-65
2022/07/18 12:40:00;;;;;;;2.63;0.90;;;23.30;99.90;;;;;;5122815;28;20197;-66
2022/07/18 12:42:31;;;;;;;0.87;0.87;;;23.30;99.90;;;;;;5127471;27;20301;-67
2022/07/18 12:44:59;;;;;;;2.33;1.50;;;23.20;99.90;;;;;;5126021;27;20645;-65
2022/07/18 12:47:26;;;;;;;0.97;0.83;;;23.00;99.90;;;;;;5115800;27;20626;-66
2022/07/18 12:49:53;;;;;;;1.27;1.17;;;22.90;99.90;;;;;;5108447;28;20301;-62
2022/07/18 12:52:20;;;;;;;2.20;0.93;;;22.80;99.90;;;;;;5128498;28;20249;-63
2022/07/18 12:54:49;;;;;;;0.97;0.90;;;22.90;99.90;;;;;;5128557;27;20220;-65
2022/07/18 12:57:16;;;;;;;1.80;1.10;;;22.90;99.90;;;;;;5119363;27;20689;-66
2022/07/18 12:59:43;;;;;;;5.80;1.20;;;22.90;99.90;;;;;;5122069;27;20301;-61
2022/07/18 13:02:10;;;;;;;0.70;0.70;;;23.00;99.90;;;;;;5127524;27;20302;-66
2022/07/18 13:04:37;;;;;;;0.90;0.80;;;22.90;99.90;;;;;;5117061;28;20229;-64
2022/07/18 13:07:04;;;;;;;0.87;0.87;;;22.90;99.90;;;;;;5103179;27;20196;-62
2022/07/18 13:09:31;;;;;;;0.87;0.83;;;22.80;99.90;;;;;;5092822;28;20203;-64
2022/07/18 13:12:01;;;;;;;1.53;1.03;;;22.80;99.90;;;;;;5092931;28;20288;-64
2022/07/18 13:14:29;;;;;;;1.53;1.30;;;22.80;99.90;;;;;;5101063;28;20215;-65
2022/07/18 13:16:56;;;;;;;1.13;1.03;;;22.90;99.90;;;;;;5100364;28;20269;-63
2022/07/18 13:19:23;;;;;;;1.40;1.10;;;22.90;99.90;;;;;;5103228;28;20251;-64
2022/07/18 13:21:50;;;;;;;3.70;1.00;;;23.00;99.90;;;;;;5095637;28;20759;-65
2022/07/18 13:24:17;;;;;;;1.13;0.90;;;23.00;99.90;;;;;;5103700;28;20281;-65
2022/07/18 13:26:44;;;;;;;2.50;0.80;;;23.10;99.90;;;;;;5113006;28;20666;-64
2022/07/18 13:29:12;;;;;;;2.53;1.67;;;23.20;99.90;;;;;;5113303;28;20290;-64
2022/07/18 13:31:39;;;;;;;1.37;1.27;;;23.30;99.90;;;;;;5112976;28;20232;-64
2022/07/18 13:34:06;;;;;;;1.20;1.10;;;23.30;99.90;;;;;;5114214;27;20208;-64
2022/07/18 13:36:33;;;;;;;2.53;1.10;;;23.40;99.90;;;;;;5113575;28;20195;-63
2022/07/18 13:39:02;;;;;;;1.47;1.20;;;23.50;99.90;;;;;;5114016;28;20611;-62
2022/07/18 13:41:29;;;;;;;2.90;1.40;;;23.40;99.90;;;;;;5114026;28;20204;-64
2022/07/18 13:43:57;;;;;;;2.20;1.60;;;23.40;99.90;;;;;;5114085;28;20390;-63
2022/07/18 13:46:25;;;;;;;1.80;1.20;;;23.20;99.90;;;;;;5113941;28;20205;-63
2022/07/18 13:48:52;;;;;;;0.93;0.93;;;23.10;99.90;;;;;;5106583;28;20303;-64
2022/07/18 13:51:19;;;;;;;1.60;1.40;;;23.00;99.90;;;;;;5093680;28;20207;-64
2022/07/18 13:53:46;;;;;;;1.73;1.10;;;23.10;99.90;;;;;;5106978;28;20204;-63
2022/07/18 13:56:13;;;;;;;1.70;1.10;;;23.20;99.90;;;;;;5113771;28;20876;-64
2022/07/18 13:58:40;;;;;;;1.10;1.00;;;23.20;99.00;;;;;;5113545;28;20677;-67
2022/07/18 14:01:07;;;;;;;1.27;0.90;;;23.20;99.60;;;;;;5106505;28;20742;-64
2022/07/18 14:03:36;;;;;;;1.47;0.97;;;23.30;99.40;;;;;;5092367;28;20207;-63
2022/07/18 14:06:03;;;;;;;0.83;0.80;;;23.30;99.30;;;;;;5091895;28;20225;-64
2022/07/18 14:08:30;;;;;;;0.90;0.90;;;23.20;99.10;;;;;;5109011;28;20255;-63
2022/07/18 14:10:57;;;;;;;4.67;1.20;;;23.20;99.80;;;;;;5113615;28;20232;-64
2022/07/18 14:13:24;;;;;;;1.97;1.00;;;23.20;99.90;;;;;;5113150;28;20205;-65
2022/07/18 14:15:50;;;;;;;2.87;1.00;;;23.20;99.90;;;;;;5111124;28;20223;-64
2022/07/18 14:18:17;;;;;;;1.00;1.00;;;23.10;99.90;;;;;;5109922;28;20208;-64
2022/07/18 14:20:46;;;;;;;1.37;0.90;;;23.20;99.90;;;;;;5098803;28;20238;-64
2022/07/18 14:23:13;;;;;;;4.00;1.30;;;23.20;99.90;;;;;;5111278;28;20657;-65
2022/07/18 14:25:40;;;;;;;1.07;1.00;;;23.30;99.80;;;;;;5104129;28;20253;-64
2022/07/18 14:28:07;;;;;;;1.17;0.90;;;23.30;99.30;;;;;;5102841;28;20276;-64
2022/07/18 14:30:34;;;;;;;5.13;1.53;;;23.30;99.20;;;;;;5100786;28;20256;-68
2022/07/18 14:33:01;;;;;;;1.00;1.00;;;23.30;99.10;;;;;;5101705;28;20196;-65
2022/07/18 14:35:28;;;;;;;2.40;1.10;;;23.20;99.50;;;;;;5094461;28;20557;-64
2022/07/18 14:37:56;;;;;;;1.60;1.10;;;23.20;99.50;;;;;;5095762;28;20200;-63
2022/07/18 14:40:23;;;;;;;1.17;1.00;;;23.20;99.00;;;;;;5107053;28;20231;-65
2022/07/18 14:42:50;;;;;;;0.70;0.70;;;23.10;98.10;;;;;;5109845;28;20304;-64
2022/07/18 14:45:18;;;;;;;1.87;1.20;;;23.10;98.10;;;;;;5095049;28;20323;-63
2022/07/18 14:47:45;;;;;;;1.33;1.23;;;23.10;98.30;;;;;;5102266;28;20300;-63
2022/07/18 14:50:12;;;;;;;1.47;1.33;;;23.10;98.70;;;;;;5101891;28;20202;-64
2022/07/18 14:52:39;;;;;;;2.30;0.93;;;23.20;98.80;;;;;;5103684;28;20283;-63
2022/07/18 14:55:09;;;;;;;1.07;0.90;;;23.20;98.20;;;;;;5103629;28;20217;-65
2022/07/18 14:57:36;;;;;;;0.80;0.80;;;23.20;98.30;;;;;;5100942;28;20228;-63
2022/07/18 15:00:06;;;;;;;0.93;0.80;;;23.30;97.80;;;;;;5102357;28;20231;-64
2022/07/18 15:02:33;;;;;;;3.33;1.10;;;23.40;96.60;;;;;;5101785;28;20227;-65
2022/07/18 15:05:00;;;;;;;1.73;1.00;;;23.30;96.40;;;;;;5103743;28;20328;-66
2022/07/18 15:07:26;;;;;;;1.23;1.00;;;23.30;96.60;;;;;;5092536;28;20712;-66
2022/07/18 15:09:53;;;;;;;0.90;0.90;;;23.30;96.80;;;;;;5097277;28;20208;-67
2022/07/18 15:12:22;;;;;;;2.20;1.00;;;23.40;96.60;;;;;;5109651;28;20282;-67
2022/07/18 15:14:49;;;;;;;1.00;1.00;;;23.50;95.90;;;;;;5096752;28;20311;-66
2022/07/18 15:17:16;;;;;;;1.10;1.00;;;23.50;96.10;;;;;;5092138;28;20205;-64
2022/07/18 15:19:43;;;;;;;1.50;1.20;;;23.60;96.00;;;;;;5095058;28;20298;-64
2022/07/18 15:22:10;;;;;;;2.70;1.17;;;23.60;95.70;;;;;;5112037;28;20285;-65
2022/07/18 15:24:37;;;;;;;1.07;0.90;;;23.60;95.30;;;;;;5111168;28;20575;-65
2022/07/18 15:27:04;;;;;;;1.03;1.00;;;23.50;95.20;;;;;;5111511;28;20297;-65
2022/07/18 15:29:32;;;;;;;1.40;1.00;;;23.50;95.20;;;;;;5111812;28;20296;-66
2022/07/18 15:31:59;;;;;;;0.90;0.90;;;23.50;95.70;;;;;;5098318;28;20313;-65
2022/07/18 15:34:26;;;;;;;0.90;0.90;;;23.50;95.70;;;;;;5107983;28;20732;-64
2022/07/18 15:36:53;;;;;;;0.93;0.93;;;23.40;95.80;;;;;;5097641;28;20230;-65
2022/07/18 15:39:20;;;;;;;1.10;0.97;;;23.40;96.30;;;;;;5100755;28;20300;-68
2022/07/18 15:41:47;;;;;;;1.57;1.00;;;23.30;96.30;;;;;;5093907;28;20229;-63
2022/07/18 15:44:14;;;;;;;1.00;0.90;;;23.30;96.00;;;;;;5097666;28;20296;-65
2022/07/18 15:46:42;;;;;;;1.83;0.90;;;23.30;95.50;;;;;;5090908;28;20292;-64
2022/07/18 15:49:09;;;;;;;1.30;1.00;;;23.30;95.60;;;;;;5094365;28;20242;-66
2022/07/18 15:51:36;;;;;;;0.90;0.90;;;23.10;95.80;;;;;;5094441;28;20256;-65
2022/07/18 15:54:04;;;;;;;1.00;0.90;;;23.10;96.00;;;;;;5091633;28;20288;-65
2022/07/18 15:56:31;;;;;;;1.00;1.00;;;23.00;95.70;;;;;;5091825;28;20221;-66
2022/07/18 15:58:58;;;;;;;1.30;1.00;;;23.00;95.90;;;;;;5091615;28;20292;-66
2022/07/18 16:01:25;;;;;;;1.07;0.90;;;22.90;96.10;;;;;;5107106;28;20223;-66
2022/07/18 16:03:53;;;;;;;0.83;0.80;;;22.90;95.90;;;;;;5090334;28;20207;-67
2022/07/18 16:06:20;;;;;;;1.17;0.90;;;22.90;96.00;;;;;;5091360;28;20727;-66
2022/07/18 16:08:47;;;;;;;4.47;1.20;;;22.80;96.20;;;;;;5091926;28;20204;-67
2022/07/18 16:11:14;;;;;;;1.53;1.30;;;22.80;96.10;;;;;;5091474;28;20266;-67
2022/07/18 16:13:41;;;;;;;1.17;1.13;;;22.80;96.10;;;;;;5108241;28;20580;-65
2022/07/18 16:16:08;;;;;;;1.87;1.00;;;22.70;96.30;;;;;;5092128;28;20224;-69
2022/07/18 16:18:35;;;;;;;1.30;0.90;;;22.60;95.50;;;;;;5094801;28;20199;-66
2022/07/18 16:21:03;;;;;;;0.93;0.87;;;22.60;94.00;;;;;;5095300;28;20232;-66
2022/07/18 16:23:30;;;;;;;0.90;0.90;;;22.50;93.60;;;;;;5100087;28;20200;-66
2022/07/18 16:25:57;;;;;;;1.13;1.03;;;22.40;93.40;;;;;;5094522;28;20210;-66
2022/07/18 16:28:24;;;;;;;0.97;0.93;;;22.30;93.90;;;;;;5090972;28;20212;-66
2022/07/18 16:30:51;;;;;;;1.07;0.97;;;22.30;94.70;;;;;;5095441;28;20204;-66
2022/07/18 16:33:18;;;;;;;1.10;1.00;;;22.20;94.40;;;;;;5096123;28;20310;-65
2022/07/18 16:35:44;;;;;;;0.90;0.90;;;22.20;94.70;;;;;;5091229;28;20220;-67
2022/07/18 16:38:13;;;;;;;0.90;0.90;;;22.20;94.80;;;;;;5091000;28;20208;-65